sensor_id;sensor_type;location;lat;lon;timestamp;P1;durP1;ratioP1;P2;durP2;ratioP2
58242;SDS011;50118;53.232;8.252;2024-03-02T00:02:04;15.20;;;10.45;;
58242;SDS011;50118;53.232;8.252;2024-03-02T00:04:32;16.48;;;11.43;;
58242;SDS011;50118;53.232;8.252;2024-03-02T00:06:57;16.48;;;11.05;;
58242;SDS011;50118;53.232;8.252;2024-03-02T00:09:23;15.55;;;10.93;;
58242;SDS011;50118;53.232;8.252;2024-03-02T00:11:48;18.73;;;10.93;;
58242;SDS011;50118;53.232;8.252;2024-03-02T00:14:14;17.35;;;10.98;;
58242;SDS011;50118;53.232;8.252;2024-03-02T00:16:40;15.60;;;10.68;;
58242;SDS011;50118;53.232;8.252;2024-03-02T00:19:06;15.57;;;10.52;;
58242;SDS011;50118;53.232;8.252;2024-03-02T00:21:32;17.65;;;11.02;;
58242;SDS011;50118;53.232;8.252;2024-03-02T00:23:58;17.85;;;11.07;;
58242;SDS011;50118;53.232;8.252;2024-03-02T00:26:25;16.70;;;10.52;;
58242;SDS011;50118;53.232;8.252;2024-03-02T00:28:52;16.95;;;10.95;;
58242;SDS011;50118;53.232;8.252;2024-03-02T00:31:21;17.77;;;11.48;;
58242;SDS011;50118;53.232;8.252;2024-03-02T00:33:47;15.85;;;10.90;;
58242;SDS011;50118;53.232;8.252;2024-03-02T00:36:14;18.38;;;11.52;;
58242;SDS011;50118;53.232;8.252;2024-03-02T00:41:20;16.23;;;10.82;;
58242;SDS011;50118;53.232;8.252;2024-03-02T00:44:04;16.60;;;11.02;;
58242;SDS011;50118;53.232;8.252;2024-03-02T00:46:40;17.98;;;10.68;;
58242;SDS011;50118;53.232;8.252;2024-03-02T00:49:17;18.30;;;10.88;;
58242;SDS011;50118;53.232;8.252;2024-03-02T00:51:46;18.70;;;11.15;;
58242;SDS011;50118;53.232;8.252;2024-03-02T00:54:18;15.52;;;10.15;;
58242;SDS011;50118;53.232;8.252;2024-03-02T00:56:46;16.48;;;10.85;;
58242;SDS011;50118;53.232;8.252;2024-03-02T00:59:12;15.95;;;10.52;;
58242;SDS011;50118;53.232;8.252;2024-03-02T01:01:37;18.02;;;11.52;;
58242;SDS011;50118;53.232;8.252;2024-03-02T01:04:03;18.25;;;11.77;;
58242;SDS011;50118;53.232;8.252;2024-03-02T01:06:28;15.90;;;10.98;;
58242;SDS011;50118;53.232;8.252;2024-03-02T01:08:55;18.63;;;11.50;;
58242;SDS011;50118;53.232;8.252;2024-03-02T01:11:20;20.55;;;11.70;;
58242;SDS011;50118;53.232;8.252;2024-03-02T01:13:49;16.52;;;10.98;;
58242;SDS011;50118;53.232;8.252;2024-03-02T01:16:14;17.38;;;11.00;;
58242;SDS011;50118;53.232;8.252;2024-03-02T01:18:41;18.30;;;11.23;;
58242;SDS011;50118;53.232;8.252;2024-03-02T01:21:06;18.65;;;11.48;;
58242;SDS011;50118;53.232;8.252;2024-03-02T01:23:32;18.63;;;11.05;;
58242;SDS011;50118;53.232;8.252;2024-03-02T01:25:57;17.58;;;11.23;;
58242;SDS011;50118;53.232;8.252;2024-03-02T01:28:23;19.65;;;11.15;;
58242;SDS011;50118;53.232;8.252;2024-03-02T01:30:48;19.27;;;11.50;;
58242;SDS011;50118;53.232;8.252;2024-03-02T01:33:14;19.80;;;11.80;;
58242;SDS011;50118;53.232;8.252;2024-03-02T01:35:41;18.52;;;11.18;;
58242;SDS011;50118;53.232;8.252;2024-03-02T01:38:06;21.92;;;12.23;;
58242;SDS011;50118;53.232;8.252;2024-03-02T01:40:33;19.80;;;11.48;;
58242;SDS011;50118;53.232;8.252;2024-03-02T01:42:59;20.85;;;11.48;;
58242;SDS011;50118;53.232;8.252;2024-03-02T01:45:25;21.02;;;12.35;;
58242;SDS011;50118;53.232;8.252;2024-03-02T01:47:50;20.05;;;12.30;;
58242;SDS011;50118;53.232;8.252;2024-03-02T01:50:16;20.92;;;11.98;;
58242;SDS011;50118;53.232;8.252;2024-03-02T01:52:50;19.73;;;12.18;;
58242;SDS011;50118;53.232;8.252;2024-03-02T01:55:16;23.10;;;12.80;;
58242;SDS011;50118;53.232;8.252;2024-03-02T01:57:41;21.38;;;12.52;;
58242;SDS011;50118;53.232;8.252;2024-03-02T02:00:08;18.90;;;11.55;;
58242;SDS011;50118;53.232;8.252;2024-03-02T02:02:34;21.58;;;12.68;;
58242;SDS011;50118;53.232;8.252;2024-03-02T02:05:00;22.65;;;12.48;;
58242;SDS011;50118;53.232;8.252;2024-03-02T02:07:25;21.00;;;12.77;;
58242;SDS011;50118;53.232;8.252;2024-03-02T02:09:51;21.60;;;12.70;;
58242;SDS011;50118;53.232;8.252;2024-03-02T02:12:16;20.85;;;11.73;;
58242;SDS011;50118;53.232;8.252;2024-03-02T02:14:48;21.98;;;13.13;;
58242;SDS011;50118;53.232;8.252;2024-03-02T02:17:15;21.52;;;12.32;;
58242;SDS011;50118;53.232;8.252;2024-03-02T02:19:41;21.60;;;12.98;;
58242;SDS011;50118;53.232;8.252;2024-03-02T02:22:07;22.75;;;12.35;;
58242;SDS011;50118;53.232;8.252;2024-03-02T02:24:33;21.60;;;12.73;;
58242;SDS011;50118;53.232;8.252;2024-03-02T02:26:58;20.67;;;11.85;;
58242;SDS011;50118;53.232;8.252;2024-03-02T02:29:23;21.33;;;12.13;;
58242;SDS011;50118;53.232;8.252;2024-03-02T02:31:49;21.48;;;12.20;;
58242;SDS011;50118;53.232;8.252;2024-03-02T02:34:14;19.73;;;11.70;;
58242;SDS011;50118;53.232;8.252;2024-03-02T02:36:40;21.50;;;12.15;;
58242;SDS011;50118;53.232;8.252;2024-03-02T02:39:07;24.85;;;13.55;;
58242;SDS011;50118;53.232;8.252;2024-03-02T02:41:36;23.33;;;13.30;;
58242;SDS011;50118;53.232;8.252;2024-03-02T02:44:01;22.50;;;13.35;;
58242;SDS011;50118;53.232;8.252;2024-03-02T02:46:26;23.20;;;12.82;;
58242;SDS011;50118;53.232;8.252;2024-03-02T02:48:52;23.45;;;13.60;;
58242;SDS011;50118;53.232;8.252;2024-03-02T02:51:19;21.65;;;13.57;;
58242;SDS011;50118;53.232;8.252;2024-03-02T02:53:44;23.50;;;13.02;;
58242;SDS011;50118;53.232;8.252;2024-03-02T02:56:09;24.60;;;14.40;;
58242;SDS011;50118;53.232;8.252;2024-03-02T02:58:35;22.98;;;13.65;;
58242;SDS011;50118;53.232;8.252;2024-03-02T03:01:00;23.85;;;13.77;;
58242;SDS011;50118;53.232;8.252;2024-03-02T03:03:26;24.00;;;13.75;;
58242;SDS011;50118;53.232;8.252;2024-03-02T03:05:51;23.95;;;13.80;;
58242;SDS011;50118;53.232;8.252;2024-03-02T03:08:17;24.90;;;14.38;;
58242;SDS011;50118;53.232;8.252;2024-03-02T03:10:42;22.33;;;13.20;;
58242;SDS011;50118;53.232;8.252;2024-03-02T03:13:08;22.92;;;12.85;;
58242;SDS011;50118;53.232;8.252;2024-03-02T03:15:37;24.30;;;13.13;;
58242;SDS011;50118;53.232;8.252;2024-03-02T03:18:05;22.80;;;12.95;;
58242;SDS011;50118;53.232;8.252;2024-03-02T03:20:32;22.00;;;12.85;;
58242;SDS011;50118;53.232;8.252;2024-03-02T03:22:59;23.80;;;13.90;;
58242;SDS011;50118;53.232;8.252;2024-03-02T03:25:25;23.80;;;13.57;;
58242;SDS011;50118;53.232;8.252;2024-03-02T03:27:50;21.77;;;13.35;;
58242;SDS011;50118;53.232;8.252;2024-03-02T03:30:17;21.08;;;11.95;;
58242;SDS011;50118;53.232;8.252;2024-03-02T03:32:43;20.90;;;12.20;;
58242;SDS011;50118;53.232;8.252;2024-03-02T03:35:09;21.55;;;12.05;;
58242;SDS011;50118;53.232;8.252;2024-03-02T03:37:34;22.02;;;11.75;;
58242;SDS011;50118;53.232;8.252;2024-03-02T03:40:01;20.27;;;12.23;;
58242;SDS011;50118;53.232;8.252;2024-03-02T03:42:27;19.95;;;12.68;;
58242;SDS011;50118;53.232;8.252;2024-03-02T03:44:53;21.02;;;12.00;;
58242;SDS011;50118;53.232;8.252;2024-03-02T03:47:19;22.02;;;12.88;;
58242;SDS011;50118;53.232;8.252;2024-03-02T03:49:45;24.80;;;12.98;;
58242;SDS011;50118;53.232;8.252;2024-03-02T03:52:11;21.27;;;11.98;;
58242;SDS011;50118;53.232;8.252;2024-03-02T03:54:36;23.13;;;12.70;;
58242;SDS011;50118;53.232;8.252;2024-03-02T03:57:03;21.63;;;12.18;;
58242;SDS011;50118;53.232;8.252;2024-03-02T03:59:29;22.05;;;12.43;;
58242;SDS011;50118;53.232;8.252;2024-03-02T04:01:54;21.15;;;12.25;;
58242;SDS011;50118;53.232;8.252;2024-03-02T04:04:20;20.38;;;11.68;;
58242;SDS011;50118;53.232;8.252;2024-03-02T04:06:45;23.33;;;12.98;;
58242;SDS011;50118;53.232;8.252;2024-03-02T04:09:11;23.27;;;12.93;;
58242;SDS011;50118;53.232;8.252;2024-03-02T04:11:36;21.58;;;12.65;;
58242;SDS011;50118;53.232;8.252;2024-03-02T04:14:01;22.17;;;12.57;;
58242;SDS011;50118;53.232;8.252;2024-03-02T04:16:27;19.25;;;12.43;;
58242;SDS011;50118;53.232;8.252;2024-03-02T04:18:53;18.58;;;11.38;;
58242;SDS011;50118;53.232;8.252;2024-03-02T04:21:19;19.45;;;11.43;;
58242;SDS011;50118;53.232;8.252;2024-03-02T04:23:44;24.00;;;12.93;;
58242;SDS011;50118;53.232;8.252;2024-03-02T04:26:10;20.67;;;12.23;;
58242;SDS011;50118;53.232;8.252;2024-03-02T04:28:36;21.60;;;12.02;;
58242;SDS011;50118;53.232;8.252;2024-03-02T04:31:01;21.25;;;12.55;;
58242;SDS011;50118;53.232;8.252;2024-03-02T04:33:26;23.13;;;12.50;;
58242;SDS011;50118;53.232;8.252;2024-03-02T04:35:52;21.95;;;12.25;;
58242;SDS011;50118;53.232;8.252;2024-03-02T04:38:17;22.73;;;12.10;;
58242;SDS011;50118;53.232;8.252;2024-03-02T04:40:43;22.02;;;12.55;;
58242;SDS011;50118;53.232;8.252;2024-03-02T04:43:08;21.73;;;12.57;;
58242;SDS011;50118;53.232;8.252;2024-03-02T04:45:34;21.20;;;11.95;;
58242;SDS011;50118;53.232;8.252;2024-03-02T04:48:00;21.00;;;11.43;;
58242;SDS011;50118;53.232;8.252;2024-03-02T04:50:25;21.25;;;12.48;;
58242;SDS011;50118;53.232;8.252;2024-03-02T04:52:50;19.33;;;11.82;;
58242;SDS011;50118;53.232;8.252;2024-03-02T04:55:16;18.65;;;10.75;;
58242;SDS011;50118;53.232;8.252;2024-03-02T04:57:41;21.88;;;11.98;;
58242;SDS011;50118;53.232;8.252;2024-03-02T05:00:07;21.50;;;12.00;;
58242;SDS011;50118;53.232;8.252;2024-03-02T05:02:34;20.42;;;11.95;;
58242;SDS011;50118;53.232;8.252;2024-03-02T05:04:59;22.42;;;12.20;;
58242;SDS011;50118;53.232;8.252;2024-03-02T05:07:25;21.60;;;11.98;;
58242;SDS011;50118;53.232;8.252;2024-03-02T05:09:50;23.95;;;12.95;;
58242;SDS011;50118;53.232;8.252;2024-03-02T05:12:16;21.05;;;11.02;;
58242;SDS011;50118;53.232;8.252;2024-03-02T05:15:01;22.83;;;11.85;;
58242;SDS011;50118;53.232;8.252;2024-03-02T05:17:27;21.10;;;12.13;;
58242;SDS011;50118;53.232;8.252;2024-03-02T05:19:52;24.27;;;13.00;;
58242;SDS011;50118;53.232;8.252;2024-03-02T05:22:18;22.77;;;12.18;;
58242;SDS011;50118;53.232;8.252;2024-03-02T05:24:43;20.27;;;11.15;;
58242;SDS011;50118;53.232;8.252;2024-03-02T05:27:09;20.75;;;11.80;;
58242;SDS011;50118;53.232;8.252;2024-03-02T05:29:34;21.52;;;12.13;;
58242;SDS011;50118;53.232;8.252;2024-03-02T05:31:59;20.15;;;11.60;;
58242;SDS011;50118;53.232;8.252;2024-03-02T05:34:25;21.05;;;11.50;;
58242;SDS011;50118;53.232;8.252;2024-03-02T05:36:50;20.15;;;11.48;;
58242;SDS011;50118;53.232;8.252;2024-03-02T05:39:16;22.23;;;12.35;;
58242;SDS011;50118;53.232;8.252;2024-03-02T05:41:41;20.73;;;11.50;;
58242;SDS011;50118;53.232;8.252;2024-03-02T05:44:06;19.63;;;11.43;;
58242;SDS011;50118;53.232;8.252;2024-03-02T05:46:32;20.83;;;11.73;;
58242;SDS011;50118;53.232;8.252;2024-03-02T05:48:58;18.88;;;11.18;;
58242;SDS011;50118;53.232;8.252;2024-03-02T05:51:24;21.23;;;12.30;;
58242;SDS011;50118;53.232;8.252;2024-03-02T05:53:50;20.67;;;11.90;;
58242;SDS011;50118;53.232;8.252;2024-03-02T05:56:15;20.85;;;11.63;;
58242;SDS011;50118;53.232;8.252;2024-03-02T05:58:41;20.55;;;11.73;;
58242;SDS011;50118;53.232;8.252;2024-03-02T06:01:25;18.98;;;11.60;;
58242;SDS011;50118;53.232;8.252;2024-03-02T06:03:57;20.67;;;11.38;;
58242;SDS011;50118;53.232;8.252;2024-03-02T06:06:24;21.52;;;11.27;;
58242;SDS011;50118;53.232;8.252;2024-03-02T06:08:49;19.60;;;11.18;;
58242;SDS011;50118;53.232;8.252;2024-03-02T06:11:15;20.45;;;11.45;;
58242;SDS011;50118;53.232;8.252;2024-03-02T06:13:40;20.92;;;11.15;;
58242;SDS011;50118;53.232;8.252;2024-03-02T06:16:06;19.70;;;11.15;;
58242;SDS011;50118;53.232;8.252;2024-03-02T06:18:33;23.90;;;13.18;;
58242;SDS011;50118;53.232;8.252;2024-03-02T06:20:59;20.17;;;11.52;;
58242;SDS011;50118;53.232;8.252;2024-03-02T06:23:25;20.80;;;11.38;;
58242;SDS011;50118;53.232;8.252;2024-03-02T06:25:51;22.60;;;11.95;;
58242;SDS011;50118;53.232;8.252;2024-03-02T06:28:17;22.90;;;12.10;;
58242;SDS011;50118;53.232;8.252;2024-03-02T06:30:42;18.27;;;10.85;;
58242;SDS011;50118;53.232;8.252;2024-03-02T06:33:08;19.80;;;11.43;;
58242;SDS011;50118;53.232;8.252;2024-03-02T06:35:34;19.95;;;11.95;;
58242;SDS011;50118;53.232;8.252;2024-03-02T06:38:00;25.88;;;12.20;;
58242;SDS011;50118;53.232;8.252;2024-03-02T06:40:26;22.90;;;11.93;;
58242;SDS011;50118;53.232;8.252;2024-03-02T06:42:51;20.80;;;11.18;;
58242;SDS011;50118;53.232;8.252;2024-03-02T06:45:17;20.60;;;11.55;;
58242;SDS011;50118;53.232;8.252;2024-03-02T06:47:42;19.38;;;11.73;;
58242;SDS011;50118;53.232;8.252;2024-03-02T06:50:08;20.17;;;11.55;;
58242;SDS011;50118;53.232;8.252;2024-03-02T06:52:34;19.45;;;11.32;;
58242;SDS011;50118;53.232;8.252;2024-03-02T06:55:00;21.20;;;11.20;;
58242;SDS011;50118;53.232;8.252;2024-03-02T06:57:25;24.17;;;11.93;;
58242;SDS011;50118;53.232;8.252;2024-03-02T06:59:51;18.92;;;11.65;;
58242;SDS011;50118;53.232;8.252;2024-03-02T07:02:19;21.20;;;11.35;;
58242;SDS011;50118;53.232;8.252;2024-03-02T07:04:45;18.52;;;11.35;;
58242;SDS011;50118;53.232;8.252;2024-03-02T07:07:10;20.98;;;11.30;;
58242;SDS011;50118;53.232;8.252;2024-03-02T07:09:36;18.48;;;11.65;;
58242;SDS011;50118;53.232;8.252;2024-03-02T07:12:01;20.58;;;11.73;;
58242;SDS011;50118;53.232;8.252;2024-03-02T07:14:27;17.42;;;10.93;;
58242;SDS011;50118;53.232;8.252;2024-03-02T07:17:12;17.17;;;10.70;;
58242;SDS011;50118;53.232;8.252;2024-03-02T07:19:38;18.35;;;11.70;;
58242;SDS011;50118;53.232;8.252;2024-03-02T07:22:07;17.67;;;10.85;;
58242;SDS011;50118;53.232;8.252;2024-03-02T07:24:38;15.65;;;10.38;;
58242;SDS011;50118;53.232;8.252;2024-03-02T07:27:07;16.58;;;10.40;;
58242;SDS011;50118;53.232;8.252;2024-03-02T07:29:34;16.10;;;11.02;;
58242;SDS011;50118;53.232;8.252;2024-03-02T07:31:59;15.90;;;10.65;;
58242;SDS011;50118;53.232;8.252;2024-03-02T07:34:25;16.55;;;10.27;;
58242;SDS011;50118;53.232;8.252;2024-03-02T07:36:51;17.50;;;10.63;;
58242;SDS011;50118;53.232;8.252;2024-03-02T07:39:17;17.80;;;11.02;;
58242;SDS011;50118;53.232;8.252;2024-03-02T07:41:42;16.40;;;10.30;;
58242;SDS011;50118;53.232;8.252;2024-03-02T07:44:08;16.17;;;10.57;;
58242;SDS011;50118;53.232;8.252;2024-03-02T07:46:34;17.52;;;11.25;;
58242;SDS011;50118;53.232;8.252;2024-03-02T07:48:59;16.35;;;10.38;;
58242;SDS011;50118;53.232;8.252;2024-03-02T07:51:25;14.18;;;10.15;;
58242;SDS011;50118;53.232;8.252;2024-03-02T07:53:51;17.00;;;10.63;;
58242;SDS011;50118;53.232;8.252;2024-03-02T07:56:16;15.90;;;11.32;;
58242;SDS011;50118;53.232;8.252;2024-03-02T07:58:47;15.35;;;11.10;;
58242;SDS011;50118;53.232;8.252;2024-03-02T08:01:14;14.05;;;9.80;;
58242;SDS011;50118;53.232;8.252;2024-03-02T08:03:40;15.02;;;10.40;;
58242;SDS011;50118;53.232;8.252;2024-03-02T08:06:05;13.70;;;9.52;;
58242;SDS011;50118;53.232;8.252;2024-03-02T08:08:31;13.82;;;9.70;;
58242;SDS011;50118;53.232;8.252;2024-03-02T08:10:56;14.23;;;9.32;;
58242;SDS011;50118;53.232;8.252;2024-03-02T08:13:22;13.27;;;9.60;;
58242;SDS011;50118;53.232;8.252;2024-03-02T08:15:47;12.48;;;9.10;;
58242;SDS011;50118;53.232;8.252;2024-03-02T08:18:13;12.98;;;9.50;;
58242;SDS011;50118;53.232;8.252;2024-03-02T08:20:41;12.52;;;9.10;;
58242;SDS011;50118;53.232;8.252;2024-03-02T08:23:07;11.43;;;8.88;;
58242;SDS011;50118;53.232;8.252;2024-03-02T08:25:33;12.57;;;9.05;;
58242;SDS011;50118;53.232;8.252;2024-03-02T08:27:58;11.82;;;9.05;;
58242;SDS011;50118;53.232;8.252;2024-03-02T08:30:24;12.82;;;9.45;;
58242;SDS011;50118;53.232;8.252;2024-03-02T08:32:49;13.00;;;9.52;;
58242;SDS011;50118;53.232;8.252;2024-03-02T08:35:15;11.65;;;9.23;;
58242;SDS011;50118;53.232;8.252;2024-03-02T08:37:41;11.77;;;8.90;;
58242;SDS011;50118;53.232;8.252;2024-03-02T08:40:07;11.98;;;9.27;;
58242;SDS011;50118;53.232;8.252;2024-03-02T08:42:33;12.23;;;9.32;;
58242;SDS011;50118;53.232;8.252;2024-03-02T08:44:59;13.27;;;10.23;;
58242;SDS011;50118;53.232;8.252;2024-03-02T08:47:26;14.55;;;9.70;;
58242;SDS011;50118;53.232;8.252;2024-03-02T08:49:52;13.07;;;9.45;;
58242;SDS011;50118;53.232;8.252;2024-03-02T08:52:17;13.43;;;9.80;;
58242;SDS011;50118;53.232;8.252;2024-03-02T08:54:43;13.35;;;9.48;;
58242;SDS011;50118;53.232;8.252;2024-03-02T08:57:08;12.57;;;9.70;;
58242;SDS011;50118;53.232;8.252;2024-03-02T08:59:34;14.07;;;9.85;;
58242;SDS011;50118;53.232;8.252;2024-03-02T09:01:59;13.65;;;9.82;;
58242;SDS011;50118;53.232;8.252;2024-03-02T09:04:24;12.95;;;9.50;;
58242;SDS011;50118;53.232;8.252;2024-03-02T09:06:50;13.40;;;9.40;;
58242;SDS011;50118;53.232;8.252;2024-03-02T09:09:15;12.70;;;9.48;;
58242;SDS011;50118;53.232;8.252;2024-03-02T09:11:41;12.13;;;9.20;;
58242;SDS011;50118;53.232;8.252;2024-03-02T09:14:06;14.07;;;9.77;;
58242;SDS011;50118;53.232;8.252;2024-03-02T09:16:32;12.02;;;8.65;;
58242;SDS011;50118;53.232;8.252;2024-03-02T09:18:57;12.23;;;8.73;;
58242;SDS011;50118;53.232;8.252;2024-03-02T09:21:23;11.85;;;9.07;;
58242;SDS011;50118;53.232;8.252;2024-03-02T09:23:50;12.25;;;9.07;;
58242;SDS011;50118;53.232;8.252;2024-03-02T09:26:16;12.25;;;9.05;;
58242;SDS011;50118;53.232;8.252;2024-03-02T09:28:44;12.15;;;8.50;;
58242;SDS011;50118;53.232;8.252;2024-03-02T09:31:10;10.82;;;8.38;;
58242;SDS011;50118;53.232;8.252;2024-03-02T09:33:35;11.98;;;8.85;;
58242;SDS011;50118;53.232;8.252;2024-03-02T09:36:01;11.82;;;8.50;;
58242;SDS011;50118;53.232;8.252;2024-03-02T09:38:26;12.30;;;7.97;;
58242;SDS011;50118;53.232;8.252;2024-03-02T09:40:51;11.07;;;8.02;;
58242;SDS011;50118;53.232;8.252;2024-03-02T09:43:17;9.88;;;7.50;;
58242;SDS011;50118;53.232;8.252;2024-03-02T09:45:43;10.10;;;7.40;;
58242;SDS011;50118;53.232;8.252;2024-03-02T09:48:10;10.43;;;8.07;;
58242;SDS011;50118;53.232;8.252;2024-03-02T09:50:35;10.70;;;7.72;;
58242;SDS011;50118;53.232;8.252;2024-03-02T09:53:03;10.07;;;7.40;;
58242;SDS011;50118;53.232;8.252;2024-03-02T09:55:29;9.85;;;7.38;;
58242;SDS011;50118;53.232;8.252;2024-03-02T09:57:55;10.70;;;7.80;;
58242;SDS011;50118;53.232;8.252;2024-03-02T10:00:21;10.73;;;7.63;;
58242;SDS011;50118;53.232;8.252;2024-03-02T10:02:46;9.48;;;6.65;;
58242;SDS011;50118;53.232;8.252;2024-03-02T10:05:22;10.57;;;6.72;;
58242;SDS011;50118;53.232;8.252;2024-03-02T10:07:58;9.90;;;6.72;;
58242;SDS011;50118;53.232;8.252;2024-03-02T10:10:37;7.53;;;5.93;;
58242;SDS011;50118;53.232;8.252;2024-03-02T10:13:08;9.85;;;6.40;;
58242;SDS011;50118;53.232;8.252;2024-03-02T10:15:37;8.52;;;6.15;;
58242;SDS011;50118;53.232;8.252;2024-03-02T10:18:12;8.07;;;5.82;;
58242;SDS011;50118;53.232;8.252;2024-03-02T10:20:39;8.02;;;6.22;;
58242;SDS011;50118;53.232;8.252;2024-03-02T10:23:10;7.00;;;5.63;;
58242;SDS011;50118;53.232;8.252;2024-03-02T10:25:37;8.10;;;5.95;;
58242;SDS011;50118;53.232;8.252;2024-03-02T10:28:03;9.02;;;6.03;;
58242;SDS011;50118;53.232;8.252;2024-03-02T10:30:31;9.40;;;5.97;;
58242;SDS011;50118;53.232;8.252;2024-03-02T10:32:57;9.02;;;5.93;;
58242;SDS011;50118;53.232;8.252;2024-03-02T10:35:22;7.93;;;5.70;;
58242;SDS011;50118;53.232;8.252;2024-03-02T10:37:48;8.50;;;5.50;;
58242;SDS011;50118;53.232;8.252;2024-03-02T10:40:15;6.93;;;5.15;;
58242;SDS011;50118;53.232;8.252;2024-03-02T10:42:41;8.75;;;5.22;;
58242;SDS011;50118;53.232;8.252;2024-03-02T10:45:07;6.05;;;4.55;;
58242;SDS011;50118;53.232;8.252;2024-03-02T10:47:38;7.57;;;4.80;;
58242;SDS011;50118;53.232;8.252;2024-03-02T10:50:07;6.57;;;4.43;;
58242;SDS011;50118;53.232;8.252;2024-03-02T10:52:36;6.40;;;4.30;;
58242;SDS011;50118;53.232;8.252;2024-03-02T10:55:04;8.23;;;4.60;;
58242;SDS011;50118;53.232;8.252;2024-03-02T10:57:39;5.82;;;4.22;;
58242;SDS011;50118;53.232;8.252;2024-03-02T11:00:28;5.95;;;4.05;;
58242;SDS011;50118;53.232;8.252;2024-03-02T11:03:02;5.43;;;3.95;;
58242;SDS011;50118;53.232;8.252;2024-03-02T11:05:36;7.63;;;3.90;;
58242;SDS011;50118;53.232;8.252;2024-03-02T11:10:36;6.05;;;3.50;;
58242;SDS011;50118;53.232;8.252;2024-03-02T11:13:08;5.47;;;3.47;;
58242;SDS011;50118;53.232;8.252;2024-03-02T11:15:34;5.43;;;3.38;;
58242;SDS011;50118;53.232;8.252;2024-03-02T11:18:04;6.38;;;3.40;;
58242;SDS011;50118;53.232;8.252;2024-03-02T11:20:36;4.78;;;3.25;;
58242;SDS011;50118;53.232;8.252;2024-03-02T11:23:07;6.07;;;3.60;;
58242;SDS011;50118;53.232;8.252;2024-03-02T11:25:33;6.10;;;3.67;;
58242;SDS011;50118;53.232;8.252;2024-03-02T11:27:59;5.75;;;3.88;;
58242;SDS011;50118;53.232;8.252;2024-03-02T11:33:01;5.75;;;3.75;;
58242;SDS011;50118;53.232;8.252;2024-03-02T11:35:44;6.65;;;4.35;;
58242;SDS011;50118;53.232;8.252;2024-03-02T11:38:13;5.03;;;3.45;;
58242;SDS011;50118;53.232;8.252;2024-03-02T11:40:39;5.35;;;3.70;;
58242;SDS011;50118;53.232;8.252;2024-03-02T11:43:06;5.72;;;3.85;;
58242;SDS011;50118;53.232;8.252;2024-03-02T11:45:33;5.07;;;3.83;;
58242;SDS011;50118;53.232;8.252;2024-03-02T11:47:58;5.63;;;3.58;;
58242;SDS011;50118;53.232;8.252;2024-03-02T11:50:34;5.15;;;3.70;;
58242;SDS011;50118;53.232;8.252;2024-03-02T11:53:03;6.88;;;4.22;;
58242;SDS011;50118;53.232;8.252;2024-03-02T11:55:37;5.88;;;4.38;;
58242;SDS011;50118;53.232;8.252;2024-03-02T11:58:04;6.10;;;4.28;;
58242;SDS011;50118;53.232;8.252;2024-03-02T12:00:30;6.25;;;4.43;;
58242;SDS011;50118;53.232;8.252;2024-03-02T12:03:05;9.07;;;5.50;;
58242;SDS011;50118;53.232;8.252;2024-03-02T12:05:32;6.57;;;4.45;;
58242;SDS011;50118;53.232;8.252;2024-03-02T12:07:59;6.30;;;4.40;;
58242;SDS011;50118;53.232;8.252;2024-03-02T12:10:26;6.00;;;4.55;;
58242;SDS011;50118;53.232;8.252;2024-03-02T12:13:02;6.60;;;4.85;;
58242;SDS011;50118;53.232;8.252;2024-03-02T12:15:29;5.85;;;4.47;;
58242;SDS011;50118;53.232;8.252;2024-03-02T12:17:57;5.82;;;4.28;;
58242;SDS011;50118;53.232;8.252;2024-03-02T12:20:24;6.82;;;4.53;;
58242;SDS011;50118;53.232;8.252;2024-03-02T12:22:52;6.93;;;4.40;;
58242;SDS011;50118;53.232;8.252;2024-03-02T12:25:22;5.90;;;4.57;;
58242;SDS011;50118;53.232;8.252;2024-03-02T12:27:49;7.53;;;4.90;;
58242;SDS011;50118;53.232;8.252;2024-03-02T12:30:16;7.07;;;5.00;;
58242;SDS011;50118;53.232;8.252;2024-03-02T12:32:42;7.57;;;4.63;;
58242;SDS011;50118;53.232;8.252;2024-03-02T12:35:10;6.68;;;4.63;;
58242;SDS011;50118;53.232;8.252;2024-03-02T12:37:46;6.68;;;4.63;;
58242;SDS011;50118;53.232;8.252;2024-03-02T12:40:13;7.25;;;4.65;;
58242;SDS011;50118;53.232;8.252;2024-03-02T12:42:42;6.90;;;4.72;;
58242;SDS011;50118;53.232;8.252;2024-03-02T12:45:08;7.38;;;4.90;;
58242;SDS011;50118;53.232;8.252;2024-03-02T12:47:34;8.02;;;4.80;;
58242;SDS011;50118;53.232;8.252;2024-03-02T12:50:00;7.75;;;4.72;;
58242;SDS011;50118;53.232;8.252;2024-03-02T12:52:26;8.20;;;5.18;;
58242;SDS011;50118;53.232;8.252;2024-03-02T12:54:52;7.10;;;5.07;;
58242;SDS011;50118;53.232;8.252;2024-03-02T12:57:20;6.70;;;4.57;;
58242;SDS011;50118;53.232;8.252;2024-03-02T12:59:48;7.43;;;5.45;;
58242;SDS011;50118;53.232;8.252;2024-03-02T13:02:16;7.22;;;5.30;;
58242;SDS011;50118;53.232;8.252;2024-03-02T13:04:43;8.13;;;5.90;;
58242;SDS011;50118;53.232;8.252;2024-03-02T13:07:09;7.30;;;4.90;;
58242;SDS011;50118;53.232;8.252;2024-03-02T13:09:35;7.53;;;5.40;;
58242;SDS011;50118;53.232;8.252;2024-03-02T13:12:02;7.35;;;5.30;;
58242;SDS011;50118;53.232;8.252;2024-03-02T13:14:31;7.70;;;5.72;;
58242;SDS011;50118;53.232;8.252;2024-03-02T13:16:58;6.90;;;4.70;;
58242;SDS011;50118;53.232;8.252;2024-03-02T13:19:25;9.68;;;5.15;;
58242;SDS011;50118;53.232;8.252;2024-03-02T13:21:51;8.05;;;5.50;;
58242;SDS011;50118;53.232;8.252;2024-03-02T13:24:17;7.05;;;5.03;;
58242;SDS011;50118;53.232;8.252;2024-03-02T13:26:42;7.40;;;5.18;;
58242;SDS011;50118;53.232;8.252;2024-03-02T13:29:08;7.63;;;5.00;;
58242;SDS011;50118;53.232;8.252;2024-03-02T13:31:34;7.18;;;5.07;;
58242;SDS011;50118;53.232;8.252;2024-03-02T13:33:59;8.05;;;5.00;;
58242;SDS011;50118;53.232;8.252;2024-03-02T13:36:24;7.30;;;4.80;;
58242;SDS011;50118;53.232;8.252;2024-03-02T13:38:50;6.60;;;4.97;;
58242;SDS011;50118;53.232;8.252;2024-03-02T13:41:16;7.50;;;4.93;;
58242;SDS011;50118;53.232;8.252;2024-03-02T13:43:41;7.05;;;4.80;;
58242;SDS011;50118;53.232;8.252;2024-03-02T13:46:09;8.52;;;4.82;;
58242;SDS011;50118;53.232;8.252;2024-03-02T13:48:35;7.68;;;4.78;;
58242;SDS011;50118;53.232;8.252;2024-03-02T13:51:01;6.82;;;5.00;;
58242;SDS011;50118;53.232;8.252;2024-03-02T13:53:27;7.18;;;4.32;;
58242;SDS011;50118;53.232;8.252;2024-03-02T13:55:53;5.93;;;4.20;;
58242;SDS011;50118;53.232;8.252;2024-03-02T13:58:18;9.48;;;4.45;;
58242;SDS011;50118;53.232;8.252;2024-03-02T14:00:45;6.15;;;3.97;;
58242;SDS011;50118;53.232;8.252;2024-03-02T14:03:11;6.10;;;4.15;;
58242;SDS011;50118;53.232;8.252;2024-03-02T14:05:37;5.90;;;4.15;;
58242;SDS011;50118;53.232;8.252;2024-03-02T14:08:02;6.60;;;4.60;;
58242;SDS011;50118;53.232;8.252;2024-03-02T14:10:29;6.28;;;4.57;;
58242;SDS011;50118;53.232;8.252;2024-03-02T14:12:54;5.70;;;4.18;;
58242;SDS011;50118;53.232;8.252;2024-03-02T14:15:22;6.10;;;4.30;;
58242;SDS011;50118;53.232;8.252;2024-03-02T14:17:49;7.00;;;5.03;;
58242;SDS011;50118;53.232;8.252;2024-03-02T14:20:15;6.28;;;4.55;;
58242;SDS011;50118;53.232;8.252;2024-03-02T14:22:46;5.97;;;4.43;;
58242;SDS011;50118;53.232;8.252;2024-03-02T14:25:11;6.78;;;4.60;;
58242;SDS011;50118;53.232;8.252;2024-03-02T14:27:36;7.95;;;4.28;;
58242;SDS011;50118;53.232;8.252;2024-03-02T14:30:02;6.07;;;4.35;;
58242;SDS011;50118;53.232;8.252;2024-03-02T14:32:29;7.82;;;4.65;;
58242;SDS011;50118;53.232;8.252;2024-03-02T14:34:54;8.45;;;4.50;;
58242;SDS011;50118;53.232;8.252;2024-03-02T14:37:20;7.30;;;5.05;;